createdAt,value
2019-04-14T00:01:17.253Z,77.60
2019-04-14T00:04:07.261Z,77.70
2019-04-14T00:06:37.902Z,78.40
2019-04-14T00:09:09.674Z,77.10
2019-04-14T00:11:44.235Z,77.00
2019-04-14T00:14:14.173Z,77.60
2019-04-14T00:16:44.498Z,77.50
2019-04-14T00:19:13.145Z,77.10
2019-04-14T00:21:41.770Z,76.80
2019-04-14T00:24:11.574Z,76.60
2019-04-14T00:26:40.284Z,76.30
2019-04-14T00:29:09.024Z,75.90
2019-04-14T00:31:37.623Z,75.50
2019-04-14T00:34:18.103Z,75.40
2019-04-14T00:36:48.428Z,75.20
2019-04-14T00:39:18.699Z,75.20
2019-04-14T00:41:55.539Z,75.10
2019-04-14T00:44:39.061Z,75.50
2019-04-14T00:47:19.936Z,75.60
2019-04-14T00:49:48.800Z,75.70
2019-04-14T00:52:18.865Z,76.00
2019-04-14T00:54:47.813Z,76.00
2019-04-14T00:57:16.656Z,76.60
2019-04-14T00:59:46.290Z,76.70
2019-04-14T01:02:15.028Z,77.10
2019-04-14T01:04:46.622Z,77.20
2019-04-14T01:07:15.134Z,77.60
2019-04-14T01:09:44.234Z,77.80
2019-04-14T01:12:12.994Z,78.40
2019-04-14T01:14:41.636Z,78.20
2019-04-14T01:17:11.268Z,78.70
2019-04-14T01:19:41.656Z,78.50
2019-04-14T01:22:10.371Z,78.40
2019-04-14T01:24:38.900Z,79.00
2019-04-14T01:27:08.133Z,78.90
2019-04-14T01:29:36.791Z,78.60
2019-04-14T01:32:06.518Z,78.70
2019-04-14T01:34:35.520Z,78.60
2019-04-14T01:37:05.152Z,78.60
2019-04-14T01:39:34.920Z,78.40
2019-04-14T01:42:04.841Z,78.50
2019-04-14T01:44:33.757Z,78.70
2019-04-14T01:47:03.094Z,78.40
2019-04-14T01:49:31.874Z,78.90
2019-04-14T01:52:18.842Z,78.70
2019-04-14T01:54:56.079Z,79.00
2019-04-14T01:57:35.243Z,79.00
2019-04-14T02:00:18.451Z,79.50
2019-04-14T02:02:47.123Z,79.60
2019-04-14T02:05:16.727Z,79.70
2019-04-14T02:07:45.577Z,79.30
2019-04-14T02:10:15.128Z,79.10
2019-04-14T02:12:45.171Z,79.10
2019-04-14T02:15:17.727Z,79.20
2019-04-14T02:17:46.116Z,79.00
2019-04-14T02:20:14.949Z,79.30
2019-04-14T02:22:44.092Z,79.20
2019-04-14T02:25:14.174Z,79.80
2019-04-14T02:27:43.004Z,79.50
2019-04-14T02:30:15.950Z,79.90
2019-04-14T02:38:13.784Z,80.00
2019-04-14T02:40:49.216Z,80.40
2019-04-14T02:43:19.715Z,80.90
2019-04-14T02:45:44.634Z,81.50
2019-04-14T02:50:43.684Z,81.40
2019-04-14T02:53:15.179Z,81.80
2019-04-14T02:55:42.532Z,82.10
2019-04-14T03:03:16.060Z,81.40
2019-04-14T03:05:44.355Z,81.10
2019-04-14T03:08:22.239Z,80.80
2019-04-14T03:13:27.075Z,81.00
2019-04-14T03:15:48.260Z,81.10
2019-04-14T03:18:40.494Z,81.30
2019-04-14T03:21:30.606Z,82.20
2019-04-14T03:23:57.973Z,82.10
2019-04-14T03:26:30.618Z,82.70
2019-04-14T03:29:21.187Z,82.70
2019-04-14T03:39:26.946Z,83.40
2019-04-14T03:41:56.853Z,83.90
2019-04-14T03:47:08.813Z,83.80
2019-04-14T03:49:26.931Z,84.60
2019-04-14T03:54:15.917Z,83.80
2019-04-14T03:56:51.430Z,83.80
2019-04-14T03:59:21.653Z,83.50
2019-04-14T04:01:50.579Z,83.00
2019-04-14T04:04:20.427Z,82.90
2019-04-14T04:06:49.219Z,82.60
2019-04-14T04:09:19.303Z,82.60
2019-04-14T04:11:47.920Z,83.00
2019-04-14T04:14:16.494Z,82.50
2019-04-14T04:17:03.649Z,82.50
2019-04-14T04:19:36.937Z,82.70
2019-04-14T04:22:13.029Z,82.90
2019-04-14T04:24:59.276Z,83.10
2019-04-14T04:27:44.537Z,83.00
2019-04-14T04:30:18.675Z,82.70
2019-04-14T04:32:49.407Z,83.20
2019-04-14T04:35:19.684Z,83.20
2019-04-14T04:37:52.814Z,82.70
2019-04-14T04:40:27.051Z,83.00
2019-04-14T04:42:56.842Z,83.00
2019-04-14T04:45:25.717Z,83.00
2019-04-14T04:47:55.535Z,83.30
2019-04-14T04:50:24.198Z,83.20
2019-04-14T04:52:53.933Z,83.50
2019-04-14T04:55:22.660Z,83.60
2019-04-14T04:57:52.321Z,83.60
2019-04-14T05:00:22.164Z,83.80
2019-04-14T05:02:51.017Z,83.90
2019-04-14T05:05:56.241Z,84.40
2019-04-14T05:08:26.191Z,84.50
2019-04-14T05:10:59.008Z,84.50
2019-04-14T05:13:29.112Z,85.00
2019-04-14T05:15:57.893Z,85.20
2019-04-14T05:18:26.834Z,84.90
2019-04-14T05:20:55.675Z,84.60
2019-04-14T05:23:25.530Z,84.70
2019-04-14T05:25:55.943Z,85.10
2019-04-14T05:28:24.741Z,83.80
2019-04-14T05:30:54.587Z,83.40
2019-04-14T05:33:23.354Z,83.60
2019-04-14T05:35:53.093Z,83.40
2019-04-14T05:38:21.814Z,82.20
2019-04-14T05:40:51.803Z,82.10
2019-04-14T05:43:33.143Z,81.90
2019-04-14T05:45:50.906Z,82.10
2019-04-14T05:48:20.441Z,82.30
2019-04-14T05:50:49.090Z,82.50
2019-04-14T05:53:17.717Z,82.10
2019-04-14T05:55:46.307Z,82.10
2019-04-14T05:58:14.860Z,82.20
2019-04-14T06:00:46.270Z,81.50
2019-04-14T06:03:14.621Z,81.90
2019-04-14T06:05:43.372Z,82.10
2019-04-14T06:08:12.027Z,82.20
2019-04-14T06:10:40.601Z,82.00
2019-04-14T06:13:11.704Z,81.30
2019-04-14T06:15:39.739Z,80.80
2019-04-14T06:18:08.436Z,81.10
2019-04-14T06:20:37.085Z,80.30
2019-04-14T06:23:05.719Z,80.00
2019-04-14T06:25:36.360Z,79.50
2019-04-14T06:28:04.806Z,78.80
2019-04-14T06:30:37.391Z,78.50
2019-04-14T06:33:07.681Z,78.00
2019-04-14T06:35:54.407Z,78.00
2019-04-14T06:38:25.004Z,77.80
2019-04-14T06:40:55.256Z,77.50
2019-04-14T06:43:23.900Z,77.10
2019-04-14T06:45:52.501Z,77.30
2019-04-14T06:48:21.128Z,77.50
2019-04-14T06:50:49.703Z,77.40
2019-04-14T06:53:18.279Z,77.10
2019-04-14T06:55:46.951Z,77.70
2019-04-14T06:58:15.441Z,77.30
2019-04-14T07:00:44.229Z,77.90
2019-04-14T07:03:12.906Z,77.90
2019-04-14T07:05:41.605Z,77.30
2019-04-14T07:08:10.115Z,77.60
2019-04-14T07:10:38.609Z,78.20
2019-04-14T07:13:07.237Z,77.30
2019-04-14T07:15:35.920Z,76.40
2019-04-14T07:18:04.483Z,76.50
2019-04-14T07:20:33.083Z,76.40
2019-04-14T07:23:01.693Z,75.40
2019-04-14T07:25:30.255Z,75.30
2019-04-14T07:28:00.079Z,75.50
2019-04-14T07:30:33.066Z,74.70
2019-04-14T07:33:21.369Z,74.30
2019-04-14T07:35:51.567Z,74.40
2019-04-14T07:38:30.899Z,74.10
2019-04-14T07:41:06.834Z,74.70
2019-04-14T07:43:37.120Z,74.90
2019-04-14T07:46:23.848Z,75.70
2019-04-14T07:48:54.077Z,75.40
2019-04-14T07:51:39.590Z,75.80
2019-04-14T07:54:12.693Z,75.50
2019-04-14T07:56:42.966Z,75.80
2019-04-14T07:59:19.463Z,76.70
2019-04-14T08:01:52.861Z,76.40
2019-04-14T08:04:23.079Z,76.30
2019-04-14T08:06:53.379Z,76.70
2019-04-14T08:09:22.154Z,76.00
2019-04-14T08:11:50.846Z,75.10
2019-04-14T08:14:19.536Z,74.70
2019-04-14T08:16:48.180Z,74.20
2019-04-14T08:19:16.755Z,74.50
2019-04-14T08:21:45.383Z,75.30
2019-04-14T08:24:13.950Z,74.20
2019-04-14T08:26:42.538Z,74.70
2019-04-14T08:29:11.156Z,73.80
2019-04-14T08:31:39.966Z,73.50
2019-04-14T08:34:08.584Z,73.40
2019-04-14T08:36:37.262Z,72.70
2019-04-14T08:39:07.225Z,73.50
2019-04-14T08:41:40.480Z,72.30
2019-04-14T08:44:10.771Z,72.50
2019-04-14T08:46:40.970Z,72.30
2019-04-14T08:49:26.721Z,70.50
2019-04-14T08:52:05.718Z,69.70
2019-04-14T08:54:45.216Z,69.40
2019-04-14T08:57:18.346Z,69.00
2019-04-14T09:00:03.864Z,69.90
2019-04-14T09:02:34.173Z,68.60
2019-04-14T09:05:06.871Z,65.90
2019-04-14T09:07:37.088Z,66.50
2019-04-14T09:10:17.512Z,66.80
2019-04-14T09:12:53.532Z,66.70
2019-04-14T09:15:22.229Z,67.40
2019-04-14T09:17:51.052Z,66.60
2019-04-14T09:20:19.727Z,67.90
2019-04-14T09:22:48.250Z,67.50
2019-04-14T09:25:16.830Z,66.30
2019-04-14T09:27:45.493Z,65.80
2019-04-14T09:30:15.225Z,64.50
2019-04-14T09:32:43.787Z,64.70
2019-04-14T09:35:12.434Z,64.20
2019-04-14T09:37:41.052Z,63.10
2019-04-14T09:40:09.782Z,63.40
2019-04-14T09:42:38.520Z,64.30
2019-04-14T09:45:07.645Z,64.40
2019-04-14T09:47:36.215Z,63.30
2019-04-14T09:50:06.266Z,63.20
2019-04-14T09:52:34.882Z,63.80
2019-04-14T09:55:04.217Z,63.20
2019-04-14T09:57:32.749Z,62.60
2019-04-14T10:00:01.377Z,63.20
2019-04-14T10:02:30.106Z,62.30
2019-04-14T10:04:58.765Z,61.30
2019-04-14T10:07:27.425Z,60.40
2019-04-14T10:09:56.084Z,62.60
2019-04-14T10:12:24.833Z,62.00
2019-04-14T10:14:53.428Z,62.60
2019-04-14T10:17:22.010Z,61.50
2019-04-14T10:19:50.700Z,61.60
2019-04-14T10:22:19.296Z,62.30
2019-04-14T10:24:48.060Z,61.60
2019-04-14T10:27:16.777Z,60.30
2019-04-14T10:29:45.337Z,61.40
2019-04-14T10:32:14.007Z,61.00
2019-04-14T10:34:42.600Z,62.00
2019-04-14T10:37:11.320Z,62.30
2019-04-14T10:39:39.903Z,61.30
2019-04-14T10:42:08.457Z,59.50
2019-04-14T10:44:36.961Z,57.30
2019-04-14T10:47:05.798Z,57.20
2019-04-14T10:49:34.329Z,57.00
2019-04-14T10:52:02.902Z,57.10
2019-04-14T10:54:31.545Z,57.20
2019-04-14T10:57:01.173Z,55.10
2019-04-14T10:59:30.059Z,54.30
2019-04-14T11:01:58.673Z,55.10
2019-04-14T11:04:27.256Z,54.50
2019-04-14T11:07:00.565Z,54.70
2019-04-14T11:09:29.125Z,55.30
2019-04-14T11:11:57.623Z,55.30
2019-04-14T11:14:26.125Z,55.90
2019-04-14T11:16:54.768Z,56.40
2019-04-14T11:19:23.458Z,57.00
2019-04-14T11:21:52.002Z,57.00
2019-04-14T11:24:20.650Z,56.70
2019-04-14T11:26:49.343Z,58.10
2019-04-14T11:29:17.978Z,58.30
2019-04-14T11:31:51.115Z,58.30
2019-04-14T11:34:37.417Z,58.70
2019-04-14T11:37:07.813Z,58.90
2019-04-14T11:39:36.577Z,56.10
2019-04-14T11:42:05.292Z,54.00
2019-04-14T11:44:34.053Z,53.10
2019-04-14T11:47:03.598Z,54.20
2019-04-14T11:49:32.089Z,53.70
2019-04-14T11:52:00.737Z,55.00
2019-04-14T11:54:29.475Z,55.20
2019-04-14T11:56:58.103Z,54.70
2019-04-14T11:59:28.561Z,54.70
2019-04-14T12:02:13.840Z,54.60
2019-04-14T12:04:46.929Z,53.60
2019-04-14T12:07:19.931Z,52.70
2019-04-14T12:09:52.945Z,53.40
2019-04-14T12:12:21.545Z,54.90
2019-04-14T12:14:50.132Z,55.70
2019-04-14T12:17:18.919Z,55.40
2019-04-14T12:19:47.657Z,55.00
2019-04-14T12:22:16.294Z,55.00
2019-04-14T12:24:44.792Z,55.00
2019-04-14T12:27:13.447Z,54.90
2019-04-14T12:29:43.249Z,54.60
2019-04-14T12:32:12.832Z,54.90
2019-04-14T12:34:41.529Z,54.70
2019-04-14T12:37:10.044Z,54.30
2019-04-14T12:39:38.540Z,54.60
2019-04-14T12:42:23.663Z,53.60
2019-04-14T12:44:56.864Z,53.30
2019-04-14T12:47:40.065Z,52.80
2019-04-14T12:50:08.470Z,53.10
2019-04-14T12:52:37.035Z,52.30
2019-04-14T12:55:06.929Z,52.30
2019-04-14T12:57:49.136Z,51.20
2019-04-14T13:00:36.147Z,50.70
2019-04-14T13:03:04.818Z,50.50
2019-04-14T13:05:33.480Z,50.90
2019-04-14T13:08:01.970Z,50.80
2019-04-14T13:10:30.627Z,50.60
2019-04-14T13:12:59.252Z,50.60
2019-04-14T13:15:27.835Z,49.50
2019-04-14T13:17:56.629Z,46.90
2019-04-14T13:20:25.210Z,44.80
2019-04-14T13:22:53.876Z,45.50
2019-04-14T13:25:22.704Z,45.50
2019-04-14T13:27:51.727Z,46.10
2019-04-14T13:30:25.327Z,46.80
2019-04-14T13:32:53.832Z,48.20
2019-04-14T13:35:22.635Z,48.70
2019-04-14T13:37:51.269Z,49.90
2019-04-14T13:40:20.085Z,50.30
2019-04-14T13:42:48.754Z,50.50
2019-04-14T13:45:17.376Z,51.00
2019-04-14T13:47:46.015Z,51.00
2019-04-14T13:50:14.682Z,50.40
2019-04-14T13:52:47.178Z,50.60
2019-04-14T13:55:13.890Z,49.90
2019-04-14T13:57:42.711Z,51.70
2019-04-14T14:00:13.885Z,49.50
2019-04-14T14:02:43.267Z,49.00
2019-04-14T14:05:12.081Z,48.40
2019-04-14T14:07:40.669Z,47.70
2019-04-14T14:10:10.275Z,46.60
2019-04-14T14:12:46.676Z,46.10
2019-04-14T14:15:33.965Z,44.90
2019-04-14T14:18:09.667Z,42.10
2019-04-14T14:20:42.706Z,42.30
2019-04-14T14:23:15.791Z,42.80
2019-04-14T14:25:46.068Z,44.80
2019-04-14T14:28:14.700Z,46.20
2019-04-14T14:30:43.345Z,47.50
2019-04-14T14:33:11.835Z,48.30
2019-04-14T14:35:40.565Z,49.20
2019-04-14T14:38:09.131Z,50.30
2019-04-14T14:40:37.773Z,50.90
2019-04-14T14:43:06.433Z,51.50
2019-04-14T14:45:42.749Z,52.10
2019-04-14T14:48:18.850Z,52.40
2019-04-14T14:50:52.040Z,53.50
2019-04-14T14:53:22.298Z,55.40
2019-04-14T14:55:51.093Z,55.50
2019-04-14T14:58:19.606Z,50.50
2019-04-14T15:00:48.175Z,46.80
2019-04-14T15:03:16.811Z,48.10
2019-04-14T15:05:45.395Z,44.70
2019-04-14T15:08:14.147Z,43.60
2019-04-14T15:10:42.810Z,43.60
2019-04-14T15:13:11.451Z,42.20
2019-04-14T15:15:40.190Z,42.10
2019-04-14T15:18:08.912Z,42.20
2019-04-14T15:20:37.533Z,42.90
2019-04-14T15:23:06.221Z,40.50
2019-04-14T15:25:34.922Z,40.60
2019-04-14T15:28:03.659Z,42.60
2019-04-14T15:30:32.378Z,42.40
2019-04-14T15:33:00.935Z,42.80
2019-04-14T15:35:29.717Z,42.10
2019-04-14T15:37:58.281Z,42.00
2019-04-14T15:40:26.844Z,40.60
2019-04-14T15:42:55.500Z,42.30
2019-04-14T15:45:24.217Z,42.60
2019-04-14T15:47:52.910Z,41.40
2019-04-14T15:50:21.724Z,41.40
2019-04-14T15:52:50.376Z,41.10
2019-04-14T15:55:19.767Z,41.10
2019-04-14T15:57:50.051Z,42.60
2019-04-14T16:00:20.447Z,42.10
2019-04-14T16:03:06.914Z,41.60
2019-04-14T16:05:40.301Z,42.10
2019-04-14T16:08:10.552Z,42.50
2019-04-14T16:10:46.700Z,42.30
2019-04-14T16:13:16.903Z,41.90
2019-04-14T16:16:03.681Z,42.20
2019-04-14T16:18:47.075Z,42.10
2019-04-14T16:21:15.909Z,42.00
2019-04-14T16:23:50.458Z,42.30
2019-04-14T16:26:25.647Z,42.30
2019-04-14T16:29:13.971Z,43.00
2019-04-14T16:31:53.365Z,43.10
2019-04-14T16:34:38.566Z,42.00
2019-04-14T16:37:07.303Z,42.40
2019-04-14T16:39:35.962Z,42.30
2019-04-14T16:42:04.673Z,42.10
2019-04-14T16:44:33.269Z,43.10
2019-04-14T16:47:01.910Z,43.80
2019-04-14T16:49:30.631Z,43.80
2019-04-14T16:52:00.909Z,44.00
2019-04-14T16:54:40.383Z,44.10
2019-04-14T16:57:29.173Z,43.70
2019-04-14T16:59:57.993Z,44.50
2019-04-14T17:02:26.582Z,44.10
2019-04-14T17:04:55.146Z,45.80
2019-04-14T17:07:23.887Z,45.40
2019-04-14T17:09:52.442Z,45.90
2019-04-14T17:12:21.056Z,45.90
2019-04-14T17:14:55.229Z,46.30
2019-04-14T17:17:31.467Z,46.40
2019-04-14T17:20:07.412Z,46.20
2019-04-14T17:22:37.645Z,46.40
2019-04-14T17:25:12.061Z,46.20
2019-04-14T17:27:48.334Z,46.30
2019-04-14T17:30:19.255Z,46.90
2019-04-14T17:33:04.897Z,47.70
2019-04-14T17:35:35.021Z,48.30
2019-04-14T17:38:08.354Z,48.90
2019-04-14T17:40:41.464Z,49.90
2019-04-14T17:43:11.665Z,50.40
2019-04-14T17:45:41.895Z,51.10
2019-04-14T17:48:12.173Z,51.60
2019-04-14T17:50:58.571Z,52.30
2019-04-14T17:53:37.552Z,52.70
2019-04-14T17:56:07.833Z,53.20
2019-04-14T17:58:38.025Z,53.50
2019-04-14T18:01:08.202Z,53.80
2019-04-14T18:03:50.521Z,54.40
2019-04-14T18:06:26.605Z,54.30
2019-04-14T18:08:59.766Z,54.90
2019-04-14T18:11:30.120Z,54.60
2019-04-14T18:14:00.326Z,54.10
2019-04-14T18:16:39.054Z,54.60
2019-04-14T18:19:15.067Z,54.50
2019-04-14T18:21:44.362Z,54.90
2019-04-14T18:24:13.096Z,55.30
2019-04-14T18:26:41.737Z,55.80
2019-04-14T18:29:30.023Z,55.80
2019-04-14T18:32:00.297Z,56.70
2019-04-14T18:34:39.336Z,56.90
2019-04-14T18:37:27.719Z,57.50
2019-04-14T18:40:09.864Z,58.00
2019-04-14T18:42:58.636Z,58.70
2019-04-14T18:45:32.119Z,59.10
2019-04-14T18:48:04.994Z,59.70
2019-04-14T18:50:38.090Z,59.40
2019-04-14T18:53:10.693Z,59.70
2019-04-14T18:55:47.009Z,59.50
2019-04-14T18:58:19.970Z,58.70
2019-04-14T19:00:50.184Z,59.60
2019-04-14T19:03:18.804Z,60.90
2019-04-14T19:05:47.479Z,61.50
2019-04-14T19:08:16.032Z,61.90
2019-04-14T19:10:46.366Z,61.40
2019-04-14T19:13:25.559Z,62.00
2019-04-14T19:15:55.693Z,61.80
2019-04-14T19:18:26.052Z,60.50
2019-04-14T19:20:56.244Z,60.80
2019-04-14T19:23:24.818Z,62.10
2019-04-14T19:25:53.384Z,62.40
2019-04-14T19:28:21.978Z,61.60
2019-04-14T19:30:50.470Z,61.10
2019-04-14T19:33:19.068Z,60.10
2019-04-14T19:35:47.616Z,59.60
2019-04-14T19:38:16.197Z,58.50
2019-04-14T19:40:44.783Z,59.20
2019-04-14T19:43:23.127Z,60.00
2019-04-14T19:45:43.582Z,59.70
2019-04-14T19:48:12.221Z,60.00
2019-04-14T19:50:40.882Z,59.50
2019-04-14T19:53:09.510Z,59.90
2019-04-14T19:55:38.145Z,59.90
2019-04-14T19:58:06.720Z,59.60
2019-04-14T20:00:35.220Z,60.60
2019-04-14T20:03:03.935Z,61.20
2019-04-14T20:05:32.432Z,61.40
2019-04-14T20:08:01.021Z,60.90
2019-04-14T20:10:29.578Z,61.00
2019-04-14T20:12:58.278Z,61.70
2019-04-14T20:15:28.513Z,61.60
2019-04-14T20:18:01.854Z,60.90
2019-04-14T20:20:48.104Z,61.00
2019-04-14T20:23:30.064Z,60.80
2019-04-14T20:26:00.286Z,61.20
2019-04-14T20:28:30.568Z,61.90
2019-04-14T20:31:18.603Z,61.20
2019-04-14T20:33:47.234Z,61.50
2019-04-14T20:36:15.759Z,62.10
2019-04-14T20:38:44.318Z,62.30
2019-04-14T20:41:12.953Z,62.20
2019-04-14T20:43:41.465Z,62.80
2019-04-14T20:46:10.169Z,63.60
2019-04-14T20:48:38.762Z,64.00
2019-04-14T20:51:07.327Z,64.60
2019-04-14T20:53:35.982Z,64.90
2019-04-14T20:56:04.624Z,65.10
2019-04-14T20:58:33.275Z,65.50
2019-04-14T21:01:02.019Z,65.50
2019-04-14T21:03:32.147Z,65.80
2019-04-14T21:06:05.109Z,66.10
2019-04-14T21:08:35.273Z,67.50
2019-04-14T21:11:08.532Z,66.80
2019-04-14T21:13:47.814Z,66.80
2019-04-14T21:16:30.143Z,66.50
2019-04-14T21:19:09.336Z,66.40
2019-04-14T21:21:39.615Z,66.20
2019-04-14T21:24:28.020Z,66.80
2019-04-14T21:26:58.248Z,66.30
2019-04-14T21:29:40.196Z,67.20
2019-04-14T21:32:16.591Z,67.10
2019-04-14T21:34:58.720Z,67.60
2019-04-14T21:37:46.533Z,68.50
2019-04-14T21:40:31.567Z,68.10
2019-04-14T21:43:00.171Z,67.40
2019-04-14T21:45:28.806Z,67.30
2019-04-14T21:47:57.500Z,66.90
2019-04-14T21:50:26.008Z,67.60
2019-04-14T21:52:54.629Z,67.10
2019-04-14T21:55:23.267Z,66.70
2019-04-14T21:57:53.479Z,67.30
2019-04-14T22:00:26.765Z,68.00
2019-04-14T22:03:13.347Z,68.70
2019-04-14T22:05:46.680Z,68.40
2019-04-14T22:08:19.709Z,68.90
2019-04-14T22:11:08.128Z,68.70
2019-04-14T22:13:36.755Z,70.00
2019-04-14T22:16:05.545Z,69.40
2019-04-14T22:18:34.171Z,70.00
2019-04-14T22:21:02.742Z,70.20
2019-04-14T22:23:31.401Z,70.50
2019-04-14T22:26:00.157Z,70.20
2019-04-14T22:28:28.745Z,70.40
2019-04-14T22:30:57.310Z,70.20
2019-04-14T22:33:25.966Z,70.80
2019-04-14T22:35:54.462Z,71.40
2019-04-14T22:38:23.264Z,71.30
2019-04-14T22:40:51.842Z,72.10
2019-04-14T22:43:20.397Z,71.40
2019-04-14T22:45:49.062Z,71.80
2019-04-14T22:48:17.625Z,71.40
2019-04-14T22:50:46.260Z,70.90
2019-04-14T22:53:14.826Z,70.70
2019-04-14T22:55:43.384Z,70.70
2019-04-14T22:58:11.987Z,70.50
2019-04-14T23:00:45.051Z,70.20
2019-04-14T23:03:16.125Z,70.20
2019-04-14T23:05:46.412Z,70.10
2019-04-14T23:08:19.560Z,70.10
2019-04-14T23:11:07.796Z,70.20
2019-04-14T23:13:50.129Z,70.70
2019-04-14T23:16:36.324Z,70.20
2019-04-14T23:19:09.334Z,70.50
2019-04-14T23:21:42.211Z,70.60
2019-04-14T23:24:12.492Z,71.10
2019-04-14T23:26:51.864Z,71.20
2019-04-14T23:29:11.428Z,72.20
2019-04-14T23:31:39.992Z,72.60
2019-04-14T23:34:08.651Z,72.60
2019-04-14T23:36:37.319Z,72.90
2019-04-14T23:39:08.968Z,72.90
2019-04-14T23:41:36.722Z,73.40
2019-04-14T23:44:05.363Z,74.20
2019-04-14T23:46:33.951Z,74.50
2019-04-14T23:49:02.798Z,74.40
2019-04-14T23:51:31.427Z,74.80
2019-04-14T23:54:00.142Z,74.90
2019-04-14T23:56:28.795Z,74.90
2019-04-14T23:58:57.644Z,74.90
